Time;durP1;ratioP1;P1;durP2;ratioP2;P2;SDS_P1;SDS_P2;PMS_P1;PMS_P2;Temp;Humidity;BMP_temperature;BMP_pressure;BME280_temperature;BME280_humidity;BME280_pressure;Samples;Min_cycle;Max_cycle;Signal;HPM_P1;HPM_P2
2021/07/31 00:02:55;;;;;;;3.13;2.02;;;;;;;21.92;70.56;99886.63;;;;-49
2021/07/31 00:05:55;;;;;;;1.94;1.84;;;;;;;21.92;70.53;99889.73;;;;-49
2021/07/31 00:08:54;;;;;;;2.11;1.93;;;;;;;21.92;70.54;99889.81;;;;-49
2021/07/31 00:11:55;;;;;;;2.21;2.00;;;;;;;21.91;70.55;99886.55;;;;-49
2021/07/31 00:14:54;;;;;;;2.00;1.79;;;;;;;21.90;70.58;99887.21;;;;-49
2021/07/31 00:17:55;;;;;;;2.55;2.00;;;;;;;21.90;70.58;99883.95;;;;-49
2021/07/31 00:20:55;;;;;;;2.19;1.99;;;;;;;21.90;70.60;99883.88;;;;-49
2021/07/31 00:23:55;;;;;;;2.06;1.86;;;;;;;21.90;70.59;99879.23;;;;-49
2021/07/31 00:26:55;;;;;;;2.23;2.02;;;;;;;21.90;70.58;99881.02;;;;-49
2021/07/31 00:29:54;;;;;;;2.03;1.91;;;;;;;21.89;70.59;99874.01;;;;-49
2021/07/31 00:32:55;;;;;;;2.13;1.93;;;;;;;21.89;70.59;99868.30;;;;-49
2021/07/31 00:35:55;;;;;;;2.30;1.81;;;;;;;21.88;70.59;99858.03;;;;-49
2021/07/31 00:38:55;;;;;;;2.33;1.89;;;;;;;21.88;70.58;99863.58;;;;-49
2021/07/31 00:41:55;;;;;;;1.99;1.89;;;;;;;21.89;70.55;99868.55;;;;-49
2021/07/31 00:44:54;;;;;;;2.01;1.81;;;;;;;21.88;70.59;99876.65;;;;-49
2021/07/31 00:47:55;;;;;;;3.03;2.04;;;;;;;21.88;70.61;99878.60;;;;-49
2021/07/31 00:50:55;;;;;;;2.93;1.90;;;;;;;21.87;70.58;99875.34;;;;-49
2021/07/31 00:53:54;;;;;;;2.00;1.83;;;;;;;21.87;70.61;99873.48;;;;-49
2021/07/31 00:56:55;;;;;;;2.22;2.01;;;;;;;21.87;70.56;99874.45;;;;-49
2021/07/31 00:59:54;;;;;;;2.69;1.96;;;;;;;21.87;70.56;99875.35;;;;-49
2021/07/31 01:02:55;;;;;;;2.27;2.07;;;;;;;21.86;70.56;99869.89;;;;-49
2021/07/31 01:05:55;;;;;;;1.94;1.80;;;;;;;21.86;70.58;99870.64;;;;-50
2021/07/31 01:08:54;;;;;;;1.93;1.83;;;;;;;21.86;70.59;99867.86;;;;-49
2021/07/31 01:11:55;;;;;;;2.21;2.01;;;;;;;21.85;70.52;99869.92;;;;-49
2021/07/31 01:14:55;;;;;;;2.10;1.85;;;;;;;21.85;70.61;99868.86;;;;-49
2021/07/31 01:17:54;;;;;;;2.14;1.89;;;;;;;21.85;70.55;99873.84;;;;-49
2021/07/31 01:20:55;;;;;;;1.84;1.74;;;;;;;21.85;70.58;99877.17;;;;-49
2021/07/31 01:23:54;;;;;;;1.94;1.80;;;;;;;21.85;70.56;99881.40;;;;-49
2021/07/31 01:26:54;;;;;;;2.09;1.85;;;;;;;21.85;70.53;99885.57;;;;-49
2021/07/31 01:29:55;;;;;;;1.72;1.62;;;;;;;21.85;70.52;99889.32;;;;-49
2021/07/31 01:32:54;;;;;;;2.03;1.80;;;;;;;21.85;70.56;99892.42;;;;-49
2021/07/31 01:35:55;;;;;;;2.13;1.93;;;;;;;21.84;70.52;99896.60;;;;-49
2021/07/31 01:38:54;;;;;;;1.93;1.83;;;;;;;21.83;70.58;99901.51;;;;-49
2021/07/31 01:41:54;;;;;;;1.88;1.74;;;;;;;21.83;70.56;99901.44;;;;-49
2021/07/31 01:44:55;;;;;;;1.90;1.80;;;;;;;21.83;70.51;99900.20;;;;-49
2021/07/31 01:47:54;;;;;;;1.90;1.77;;;;;;;21.83;70.53;99899.95;;;;-49
2021/07/31 01:50:55;;;;;;;1.80;1.70;;;;;;;21.83;70.51;99905.25;;;;-49
2021/07/31 01:53:54;;;;;;;2.05;1.86;;;;;;;21.82;70.50;99909.83;;;;-49
2021/07/31 01:56:54;;;;;;;1.99;1.88;;;;;;;21.82;70.53;99911.80;;;;-49
2021/07/31 01:59:55;;;;;;;1.86;1.76;;;;;;;21.82;70.53;99912.92;;;;-49
2021/07/31 02:02:54;;;;;;;1.91;1.81;;;;;;;21.82;70.52;99916.84;;;;-49
2021/07/31 02:05:54;;;;;;;1.87;1.77;;;;;;;21.81;70.51;99916.47;;;;-49
2021/07/31 02:08:54;;;;;;;2.06;1.90;;;;;;;21.81;70.50;99918.42;;;;-49
2021/07/31 02:11:54;;;;;;;1.85;1.75;;;;;;;21.82;70.51;99918.73;;;;-49
2021/07/31 02:14:55;;;;;;;1.91;1.81;;;;;;;21.81;70.48;99912.88;;;;-49
2021/07/31 02:17:54;;;;;;;1.81;1.71;;;;;;;21.80;70.48;99913.93;;;;-49
2021/07/31 02:20:54;;;;;;;1.97;1.82;;;;;;;21.80;70.56;99918.90;;;;-49
2021/07/31 02:23:54;;;;;;;2.03;1.85;;;;;;;21.80;70.50;99918.17;;;;-49
2021/07/31 02:26:54;;;;;;;1.90;1.80;;;;;;;21.80;70.49;99917.28;;;;-49
2021/07/31 02:29:55;;;;;;;1.90;1.80;;;;;;;21.80;70.52;99914.92;;;;-49
2021/07/31 02:32:54;;;;;;;2.00;1.83;;;;;;;21.79;70.47;99913.22;;;;-49
2021/07/31 02:35:54;;;;;;;1.75;1.65;;;;;;;21.79;70.49;99911.58;;;;-51
2021/07/31 02:38:55;;;;;;;1.83;1.69;;;;;;;21.79;70.50;99911.58;;;;-50
2021/07/31 02:41:54;;;;;;;1.94;1.80;;;;;;;21.79;70.50;99906.62;;;;-51
2021/07/31 02:44:55;;;;;;;1.99;1.87;;;;;;;21.78;70.47;99903.59;;;;-50
2021/07/31 02:47:54;;;;;;;2.03;1.70;;;;;;;21.78;70.48;99904.73;;;;-50
2021/07/31 02:50:54;;;;;;;1.80;1.70;;;;;;;21.78;70.49;99901.47;;;;-49
2021/07/31 02:53:55;;;;;;;2.01;1.80;;;;;;;21.78;70.46;99902.05;;;;-49
2021/07/31 02:56:54;;;;;;;1.90;1.80;;;;;;;21.78;70.54;99897.64;;;;-49
2021/07/31 02:59:54;;;;;;;2.09;1.91;;;;;;;21.78;70.47;99899.44;;;;-49
2021/07/31 03:02:54;;;;;;;1.97;1.84;;;;;;;21.77;70.51;99890.91;;;;-49
2021/07/31 03:05:55;;;;;;;1.88;1.78;;;;;;;21.77;70.52;99894.31;;;;-49
2021/07/31 03:08:55;;;;;;;1.99;1.80;;;;;;;21.77;70.50;99891.78;;;;-49
2021/07/31 03:11:54;;;;;;;1.87;1.77;;;;;;;21.77;70.50;99892.21;;;;-49
2021/07/31 03:14:55;;;;;;;2.02;1.81;;;;;;;21.77;70.51;99896.53;;;;-49
2021/07/31 03:17:54;;;;;;;2.35;1.80;;;;;;;21.76;70.51;99889.77;;;;-49
2021/07/31 03:20:54;;;;;;;1.95;1.78;;;;;;;21.76;70.51;99887.23;;;;-49
2021/07/31 03:23:55;;;;;;;2.25;1.79;;;;;;;21.76;70.47;99887.23;;;;-49
2021/07/31 03:26:54;;;;;;;2.01;1.81;;;;;;;21.75;70.50;99891.73;;;;-49
2021/07/31 03:29:55;;;;;;;1.95;1.74;;;;;;;21.75;70.50;99890.12;;;;-49
2021/07/31 03:32:54;;;;;;;1.85;1.75;;;;;;;21.75;70.49;99894.41;;;;-49
2021/07/31 03:35:55;;;;;;;2.06;1.89;;;;;;;21.75;70.47;99895.66;;;;-49
2021/07/31 03:38:54;;;;;;;1.86;1.76;;;;;;;21.74;70.46;99897.53;;;;-49
2021/07/31 03:41:56;;;;;;;1.95;1.84;;;;;;;21.74;70.49;99899.07;;;;-49
2021/07/31 03:44:55;;;;;;;1.70;1.60;;;;;;;21.74;70.50;99899.66;;;;-49
2021/07/31 03:47:54;;;;;;;1.93;1.79;;;;;;;21.74;70.51;99902.51;;;;-49
2021/07/31 03:50:54;;;;;;;2.11;1.83;;;;;;;21.74;70.43;99908.14;;;;-49
2021/07/31 03:53:54;;;;;;;1.80;1.70;;;;;;;21.74;70.48;99906.84;;;;-49
2021/07/31 03:56:54;;;;;;;1.81;1.71;;;;;;;21.73;70.48;99905.88;;;;-49
2021/07/31 03:59:55;;;;;;;1.71;1.61;;;;;;;21.74;70.46;99908.63;;;;-49
2021/07/31 04:02:54;;;;;;;1.70;1.60;;;;;;;21.73;70.46;99904.08;;;;-49
2021/07/31 04:05:54;;;;;;;1.79;1.69;;;;;;;21.72;70.46;99908.72;;;;-49
2021/07/31 04:08:55;;;;;;;1.92;1.79;;;;;;;21.72;70.53;99910.44;;;;-49
2021/07/31 04:11:54;;;;;;;1.93;1.81;;;;;;;21.72;70.50;99915.98;;;;-49
2021/07/31 04:14:55;;;;;;;1.70;1.60;;;;;;;21.72;70.45;99920.64;;;;-49
2021/07/31 04:17:54;;;;;;;1.72;1.62;;;;;;;21.71;70.51;99922.20;;;;-49
2021/07/31 04:20:54;;;;;;;1.83;1.73;;;;;;;21.71;70.49;99924.41;;;;-49
2021/07/31 04:23:55;;;;;;;1.78;1.54;;;;;;;21.71;70.53;99918.95;;;;-49
2021/07/31 04:26:54;;;;;;;1.81;1.70;;;;;;;21.71;70.51;99923.09;;;;-49
2021/07/31 04:29:55;;;;;;;1.88;1.78;;;;;;;21.71;70.47;99924.98;;;;-49
2021/07/31 04:32:54;;;;;;;1.85;1.70;;;;;;;21.71;70.54;99926.52;;;;-49
2021/07/31 04:35:54;;;;;;;1.98;1.66;;;;;;;21.70;70.55;99926.76;;;;-49
2021/07/31 04:38:55;;;;;;;1.69;1.59;;;;;;;21.70;70.55;99928.80;;;;-48
2021/07/31 04:41:54;;;;;;;1.65;1.55;;;;;;;21.69;70.56;99930.38;;;;-49
2021/07/31 04:44:54;;;;;;;2.81;2.06;;;;;;;21.60;65.84;99936.67;;;;-50
2021/07/31 04:47:55;;;;;;;3.97;2.30;;;;;;;21.53;64.71;99937.98;;;;-49
2021/07/31 04:50:54;;;;;;;3.02;2.31;;;;;;;21.40;63.97;99933.84;;;;-49
2021/07/31 04:53:55;;;;;;;4.77;2.23;;;;;;;21.26;63.78;99938.45;;;;-49
2021/07/31 04:56:54;;;;;;;4.35;2.45;;;;;;;21.17;63.43;99936.60;;;;-49
2021/07/31 04:59:54;;;;;;;4.49;2.24;;;;;;;21.11;63.55;99940.06;;;;-49
2021/07/31 05:02:54;;;;;;;3.75;2.33;;;;;;;21.03;63.39;99944.36;;;;-49
2021/07/31 05:05:54;;;;;;;4.79;2.34;;;;;;;21.01;63.50;99944.30;;;;-49
2021/07/31 05:08:54;;;;;;;4.09;2.25;;;;;;;20.95;64.01;99945.23;;;;-49
2021/07/31 05:11:54;;;;;;;4.05;2.20;;;;;;;20.93;63.67;99943.88;;;;-49
2021/07/31 05:14:55;;;;;;;3.11;2.35;;;;;;;20.88;63.79;99945.96;;;;-49
2021/07/31 05:17:54;;;;;;;3.77;2.40;;;;;;;20.80;64.07;99949.52;;;;-49
2021/07/31 05:20:54;;;;;;;5.98;2.30;;;;;;;20.83;64.04;99949.23;;;;-49
2021/07/31 05:23:54;;;;;;;3.07;2.29;;;;;;;20.81;63.80;99946.56;;;;-49
2021/07/31 05:26:54;;;;;;;4.11;2.36;;;;;;;20.77;63.94;99946.59;;;;-49
2021/07/31 05:29:54;;;;;;;3.95;2.02;;;;;;;20.79;63.85;99949.27;;;;-49
2021/07/31 05:32:54;;;;;;;4.34;2.21;;;;;;;20.80;63.96;99951.22;;;;-59
2021/07/31 05:35:54;;;;;;;4.58;2.21;;;;;;;20.77;64.13;99956.13;;;;-57
2021/07/31 05:38:55;;;;;;;4.41;2.09;;;;;;;20.80;64.21;99957.75;;;;-58
2021/07/31 05:41:54;;;;;;;2.54;1.90;;;;;;;20.80;64.73;99960.50;;;;-56
2021/07/31 05:44:54;;;;;;;4.67;2.21;;;;;;;20.82;64.19;99960.99;;;;-58
2021/07/31 05:47:57;;;;;;;4.15;2.04;;;;;;;20.84;64.35;99961.70;;;;-58
2021/07/31 05:50:54;;;;;;;4.45;2.09;;;;;;;20.85;64.45;99954.52;;;;-57
2021/07/31 05:53:54;;;;;;;4.55;2.12;;;;;;;20.86;63.98;99958.20;;;;-58
2021/07/31 05:56:54;;;;;;;3.90;2.23;;;;;;;20.85;64.13;99956.97;;;;-58
2021/07/31 05:59:55;;;;;;;4.95;2.20;;;;;;;20.87;64.33;99959.40;;;;-62
2021/07/31 06:02:54;;;;;;;6.49;2.33;;;;;;;20.91;64.40;99961.23;;;;-62
2021/07/31 06:05:54;;;;;;;4.40;2.48;;;;;;;20.94;64.77;99964.81;;;;-63
2021/07/31 06:08:54;;;;;;;7.97;2.33;;;;;;;20.97;64.97;99970.00;;;;-64
2021/07/31 06:11:54;;;;;;;8.28;2.45;;;;;;;21.00;65.21;99967.67;;;;-64
2021/07/31 06:14:54;;;;;;;7.52;2.01;;;;;;;21.01;65.36;99966.53;;;;-64
2021/07/31 06:17:55;;;;;;;6.21;2.08;;;;;;;21.03;65.43;99968.48;;;;-63
2021/07/31 06:20:54;;;;;;;3.95;1.97;;;;;;;21.05;65.66;99965.30;;;;-64
2021/07/31 06:23:54;;;;;;;5.23;2.05;;;;;;;21.07;65.76;99967.40;;;;-64
2021/07/31 06:26:54;;;;;;;2.72;2.01;;;;;;;21.07;65.88;99970.48;;;;-64
2021/07/31 06:29:54;;;;;;;2.68;2.07;;;;;;;21.09;66.04;99970.39;;;;-64
2021/07/31 06:32:55;;;;;;;4.10;1.98;;;;;;;21.10;66.17;99965.88;;;;-63
2021/07/31 06:35:54;;;;;;;3.13;1.95;;;;;;;21.12;66.28;99971.34;;;;-64
2021/07/31 06:38:55;;;;;;;3.41;2.00;;;;;;;21.12;66.39;99968.06;;;;-63
2021/07/31 06:41:54;;;;;;;3.89;2.15;;;;;;;21.13;66.44;99972.48;;;;-64
2021/07/31 06:44:54;;;;;;;2.59;1.99;;;;;;;21.14;66.51;99970.83;;;;-62
2021/07/31 06:47:55;;;;;;;2.17;1.83;;;;;;;21.14;66.59;99971.88;;;;-62
2021/07/31 06:50:54;;;;;;;2.55;1.90;;;;;;;21.15;66.58;99974.02;;;;-63
2021/07/31 06:53:55;;;;;;;2.63;1.97;;;;;;;21.15;66.78;99978.58;;;;-62
2021/07/31 06:56:54;;;;;;;2.71;1.90;;;;;;;21.16;66.75;99971.63;;;;-62
2021/07/31 06:59:54;;;;;;;2.57;1.89;;;;;;;21.16;66.83;99975.62;;;;-63
2021/07/31 07:02:54;;;;;;;2.22;1.92;;;;;;;21.17;66.94;99972.68;;;;-62
2021/07/31 07:05:54;;;;;;;3.96;1.83;;;;;;;21.18;66.99;99973.41;;;;-63
2021/07/31 07:08:55;;;;;;;3.98;2.21;;;;;;;21.18;66.98;99967.29;;;;-57
2021/07/31 07:11:56;;;;;;;2.45;1.84;;;;;;;21.18;67.09;99969.65;;;;-57
2021/07/31 07:14:54;;;;;;;5.17;1.94;;;;;;;21.19;67.13;99968.44;;;;-57
2021/07/31 07:17:54;;;;;;;2.59;1.97;;;;;;;21.20;67.14;99963.13;;;;-57
2021/07/31 07:20:54;;;;;;;3.44;1.94;;;;;;;21.20;67.21;99962.63;;;;-57
2021/07/31 07:23:54;;;;;;;2.58;1.87;;;;;;;21.20;67.27;99965.41;;;;-57
2021/07/31 07:26:54;;;;;;;2.73;1.98;;;;;;;21.20;67.22;99966.12;;;;-57
2021/07/31 07:29:54;;;;;;;2.45;2.01;;;;;;;21.21;67.26;99962.39;;;;-57
2021/07/31 07:32:55;;;;;;;1.86;1.67;;;;;;;21.22;67.36;99969.14;;;;-57
2021/07/31 07:35:54;;;;;;;2.52;1.86;;;;;;;21.22;67.32;99965.23;;;;-56
2021/07/31 07:38:54;;;;;;;2.49;1.94;;;;;;;21.22;67.43;99960.17;;;;-57
2021/07/31 07:41:54;;;;;;;3.06;1.90;;;;;;;21.22;67.39;99960.33;;;;-56
2021/07/31 07:44:54;;;;;;;2.13;1.87;;;;;;;21.24;67.48;99963.41;;;;-57
2021/07/31 07:47:54;;;;;;;3.00;1.90;;;;;;;21.24;67.49;99965.20;;;;-56
2021/07/31 07:50:54;;;;;;;2.08;1.76;;;;;;;21.24;67.49;99966.77;;;;-57
2021/07/31 07:53:54;;;;;;;2.31;1.90;;;;;;;21.24;67.59;99966.44;;;;-50
2021/07/31 07:56:54;;;;;;;3.29;1.91;;;;;;;21.26;67.92;99964.13;;;;-56
2021/07/31 07:59:54;;;;;;;1.99;1.79;;;;;;;21.27;67.80;99965.67;;;;-52
2021/07/31 08:02:55;;;;;;;2.05;1.77;;;;;;;21.30;67.87;99969.30;;;;-55
2021/07/31 08:05:54;;;;;;;3.13;1.90;;;;;;;21.33;68.15;99967.55;;;;-54
2021/07/31 08:08:54;;;;;;;2.97;1.89;;;;;;;21.35;68.29;99972.10;;;;-62
2021/07/31 08:11:54;;;;;;;2.25;1.70;;;;;;;21.37;68.46;99969.14;;;;-57
2021/07/31 08:14:55;;;;;;;2.00;1.73;;;;;;;21.40;68.62;99970.44;;;;-56
2021/07/31 08:17:54;;;;;;;3.03;1.70;;;;;;;21.43;68.75;99961.88;;;;-51
2021/07/31 08:20:54;;;;;;;3.08;1.84;;;;;;;21.46;68.86;99960.88;;;;-52
2021/07/31 08:23:54;;;;;;;5.95;1.83;;;;;;;21.48;69.10;99960.12;;;;-51
2021/07/31 08:26:54;;;;;;;3.03;1.87;;;;;;;21.50;69.17;99959.78;;;;-52
2021/07/31 08:29:54;;;;;;;4.76;1.80;;;;;;;21.52;69.06;99955.58;;;;-50
2021/07/31 08:32:55;;;;;;;5.33;1.97;;;;;;;21.53;69.17;99957.30;;;;-51
2021/07/31 08:35:54;;;;;;;3.95;1.81;;;;;;;21.55;69.23;99958.59;;;;-51
2021/07/31 08:38:54;;;;;;;2.57;1.80;;;;;;;21.57;69.27;99959.22;;;;-53
2021/07/31 08:41:54;;;;;;;4.21;1.97;;;;;;;21.58;69.30;99961.57;;;;-50
2021/07/31 08:44:54;;;;;;;2.64;1.91;;;;;;;21.60;69.31;99960.23;;;;-56
2021/07/31 08:47:54;;;;;;;4.85;2.09;;;;;;;21.62;69.48;99960.55;;;;-52
2021/07/31 08:50:54;;;;;;;6.00;1.92;;;;;;;21.63;69.41;99961.36;;;;-47
2021/07/31 08:53:54;;;;;;;7.04;1.95;;;;;;;21.64;69.37;99960.59;;;;-50
2021/07/31 08:56:54;;;;;;;4.17;1.80;;;;;;;21.66;69.55;99957.72;;;;-53
2021/07/31 08:59:54;;;;;;;5.28;1.96;;;;;;;21.67;69.62;99956.91;;;;-53
2021/07/31 09:02:54;;;;;;;4.60;1.89;;;;;;;21.69;69.47;99958.77;;;;-51
2021/07/31 09:05:54;;;;;;;4.39;1.91;;;;;;;21.70;69.53;99951.96;;;;-54
2021/07/31 09:08:54;;;;;;;3.35;1.93;;;;;;;21.72;69.52;99959.71;;;;-51
2021/07/31 09:11:54;;;;;;;4.16;1.89;;;;;;;21.73;69.50;99958.14;;;;-51
2021/07/31 09:14:54;;;;;;;3.20;1.91;;;;;;;21.74;69.57;99964.31;;;;-51
2021/07/31 09:17:54;;;;;;;2.95;1.91;;;;;;;21.76;69.54;99967.50;;;;-55
2021/07/31 09:20:54;;;;;;;4.70;1.91;;;;;;;21.76;69.62;99960.47;;;;-53
2021/07/31 09:23:54;;;;;;;5.00;1.93;;;;;;;21.78;69.62;99960.28;;;;-58
2021/07/31 09:26:55;;;;;;;7.40;2.08;;;;;;;21.79;69.66;99958.16;;;;-60
2021/07/31 09:29:54;;;;;;;5.05;1.87;;;;;;;21.80;69.72;99958.16;;;;-56
2021/07/31 09:32:54;;;;;;;3.30;1.79;;;;;;;21.80;69.56;99953.33;;;;-56
2021/07/31 09:35:54;;;;;;;4.16;1.77;;;;;;;21.81;69.52;99953.02;;;;-58
2021/07/31 09:38:54;;;;;;;3.75;1.91;;;;;;;21.82;69.55;99948.91;;;;-57
2021/07/31 09:41:54;;;;;;;8.43;2.17;;;;;;;21.83;69.27;99953.70;;;;-56
2021/07/31 09:44:54;;;;;;;6.64;1.97;;;;;;;21.83;69.48;99955.67;;;;-53
2021/07/31 09:47:54;;;;;;;8.34;1.80;;;;;;;21.82;69.37;99949.81;;;;-54
2021/07/31 09:50:54;;;;;;;7.11;1.95;;;;;;;21.83;69.28;99951.17;;;;-56
2021/07/31 09:53:54;;;;;;;7.75;1.88;;;;;;;21.83;69.27;99951.91;;;;-56
2021/07/31 09:56:55;;;;;;;2.87;1.81;;;;;;;21.83;69.16;99953.55;;;;-58
2021/07/31 09:59:55;;;;;;;3.79;1.74;;;;;;;21.83;69.09;99953.88;;;;-55
2021/07/31 10:02:54;;;;;;;7.33;2.02;;;;;;;21.84;68.89;99948.23;;;;-51
2021/07/31 10:05:54;;;;;;;7.97;1.85;;;;;;;21.85;68.93;99942.99;;;;-59
2021/07/31 10:08:54;;;;;;;10.32;2.08;;;;;;;21.85;68.75;99942.02;;;;-59
2021/07/31 10:11:54;;;;;;;3.87;1.81;;;;;;;21.85;68.82;99934.36;;;;-59
2021/07/31 10:14:54;;;;;;;3.01;1.77;;;;;;;21.85;68.69;99929.47;;;;-60
2021/07/31 10:17:54;;;;;;;3.81;1.88;;;;;;;21.85;68.68;99931.50;;;;-48
2021/07/31 10:20:54;;;;;;;3.11;1.93;;;;;;;21.86;68.66;99925.37;;;;-59
2021/07/31 10:23:54;;;;;;;3.18;1.78;;;;;;;21.86;68.68;99929.44;;;;-53
2021/07/31 10:26:54;;;;;;;3.09;2.02;;;;;;;21.87;68.32;99929.28;;;;-52
2021/07/31 10:29:54;;;;;;;4.96;2.01;;;;;;;21.89;68.70;99925.66;;;;-49
2021/07/31 10:32:55;;;;;;;4.49;2.06;;;;;;;21.90;68.66;99921.09;;;;-52
2021/07/31 10:35:54;;;;;;;9.73;1.91;;;;;;;21.90;67.91;99929.80;;;;-58
2021/07/31 10:38:54;;;;;;;5.82;1.98;;;;;;;21.91;68.64;99923.82;;;;-50
2021/07/31 10:41:54;;;;;;;7.29;1.93;;;;;;;21.92;68.50;99920.57;;;;-47
2021/07/31 10:44:54;;;;;;;4.05;2.05;;;;;;;21.92;68.57;99923.82;;;;-51
2021/07/31 10:47:54;;;;;;;5.04;2.04;;;;;;;21.93;68.38;99921.61;;;;-53
2021/07/31 10:50:54;;;;;;;5.13;1.77;;;;;;;21.93;68.42;99920.05;;;;-53
2021/07/31 10:53:54;;;;;;;5.57;2.00;;;;;;;21.93;68.41;99920.70;;;;-47
2021/07/31 10:56:54;;;;;;;5.29;2.00;;;;;;;21.94;68.43;99915.81;;;;-49
2021/07/31 10:59:54;;;;;;;2.93;1.87;;;;;;;21.94;68.50;99914.02;;;;-50
2021/07/31 11:02:54;;;;;;;3.03;1.71;;;;;;;21.94;68.43;99915.80;;;;-50
2021/07/31 11:05:54;;;;;;;8.82;2.03;;;;;;;21.95;68.42;99914.95;;;;-50
2021/07/31 11:08:54;;;;;;;4.04;1.80;;;;;;;21.96;68.45;99913.76;;;;-53
2021/07/31 11:11:54;;;;;;;2.40;1.92;;;;;;;21.96;68.40;99914.89;;;;-56
2021/07/31 11:14:54;;;;;;;2.63;1.81;;;;;;;21.96;68.47;99911.30;;;;-54
2021/07/31 11:17:54;;;;;;;3.29;1.78;;;;;;;21.97;68.42;99909.07;;;;-52
2021/07/31 11:20:54;;;;;;;3.77;1.93;;;;;;;21.97;68.45;99891.94;;;;-52
2021/07/31 11:23:54;;;;;;;4.23;1.85;;;;;;;21.97;68.31;99913.73;;;;-59
2021/07/31 11:26:54;;;;;;;4.33;1.79;;;;;;;21.97;68.35;99921.12;;;;-59
2021/07/31 11:29:55;;;;;;;2.81;1.76;;;;;;;21.98;68.27;99923.03;;;;-59
2021/07/31 11:32:54;;;;;;;2.36;1.79;;;;;;;21.97;68.29;99915.42;;;;-57
2021/07/31 11:35:54;;;;;;;2.24;1.68;;;;;;;21.98;68.30;99913.56;;;;-57
2021/07/31 11:38:54;;;;;;;3.01;1.71;;;;;;;21.97;68.25;99909.87;;;;-58
2021/07/31 11:41:57;;;;;;;2.86;1.87;;;;;;;21.97;68.29;99914.53;;;;-57
2021/07/31 11:44:54;;;;;;;2.09;1.73;;;;;;;21.98;68.30;99923.03;;;;-57
2021/07/31 11:47:57;;;;;;;4.26;1.82;;;;;;;21.97;68.30;99915.75;;;;-57
2021/07/31 11:50:54;;;;;;;4.22;1.91;;;;;;;21.97;68.28;99914.12;;;;-52
2021/07/31 11:53:54;;;;;;;4.39;2.04;;;;;;;21.97;68.25;99912.00;;;;-50
2021/07/31 11:56:55;;;;;;;2.87;1.81;;;;;;;21.97;68.29;99913.73;;;;-50
2021/07/31 11:59:54;;;;;;;3.65;1.99;;;;;;;21.98;68.25;99917.65;;;;-50
2021/07/31 12:02:54;;;;;;;4.36;1.85;;;;;;;21.97;68.28;99910.70;;;;-50
2021/07/31 12:05:54;;;;;;;2.39;1.83;;;;;;;21.97;68.24;99906.88;;;;-50
2021/07/31 12:08:57;;;;;;;3.17;1.83;;;;;;;21.97;68.29;99908.84;;;;-49
2021/07/31 12:11:54;;;;;;;2.76;1.81;;;;;;;21.96;68.26;99904.84;;;;-50
2021/07/31 12:14:54;;;;;;;3.91;1.88;;;;;;;21.97;68.25;99901.87;;;;-51
2021/07/31 12:17:54;;;;;;;2.65;1.80;;;;;;;21.97;68.28;99905.73;;;;-51
2021/07/31 12:20:55;;;;;;;2.55;1.73;;;;;;;21.97;68.26;99900.26;;;;-51
2021/07/31 12:23:54;;;;;;;2.34;1.65;;;;;;;21.96;68.33;99900.27;;;;-53
2021/07/31 12:26:54;;;;;;;2.77;1.72;;;;;;;21.97;68.23;99900.19;;;;-51
2021/07/31 12:29:54;;;;;;;2.40;1.70;;;;;;;21.97;68.26;99902.95;;;;-51
2021/07/31 12:32:55;;;;;;;3.44;1.77;;;;;;;21.97;68.21;99901.55;;;;-53
2021/07/31 12:35:56;;;;;;;3.78;1.73;;;;;;;21.97;68.28;99904.65;;;;-59
2021/07/31 12:38:55;;;;;;;3.29;1.85;;;;;;;21.98;68.28;99897.25;;;;-59
2021/07/31 12:41:54;;;;;;;3.34;1.63;;;;;;;21.98;68.29;99910.05;;;;-53
2021/07/31 12:44:55;;;;;;;1.61;1.51;;;;;;;21.97;68.30;99900.33;;;;-53
2021/07/31 12:47:54;;;;;;;2.29;1.71;;;;;;;21.97;68.30;99901.06;;;;-51
2021/07/31 12:50:54;;;;;;;2.63;1.74;;;;;;;21.98;68.28;99904.75;;;;-51
2021/07/31 12:53:54;;;;;;;2.33;1.75;;;;;;;21.98;68.36;99900.52;;;;-51
2021/07/31 12:56:54;;;;;;;1.88;1.72;;;;;;;21.97;68.37;99908.08;;;;-53
2021/07/31 12:59:54;;;;;;;2.12;1.62;;;;;;;21.97;68.36;99905.62;;;;-53
2021/07/31 13:02:54;;;;;;;2.75;1.69;;;;;;;21.99;68.33;99905.05;;;;-51
2021/07/31 13:05:54;;;;;;;2.39;1.47;;;;;;;21.98;68.34;99903.52;;;;-53
2021/07/31 13:08:54;;;;;;;2.47;1.73;;;;;;;21.96;68.42;99898.23;;;;-54
2021/07/31 13:11:55;;;;;;;2.59;1.82;;;;;;;21.98;68.41;99902.53;;;;-52
2021/07/31 13:14:54;;;;;;;4.24;1.64;;;;;;;22.00;68.44;99904.48;;;;-52
2021/07/31 13:17:54;;;;;;;2.60;1.75;;;;;;;22.01;68.46;99895.80;;;;-52
2021/07/31 13:20:54;;;;;;;3.69;1.61;;;;;;;22.03;68.50;99891.38;;;;-55
2021/07/31 13:23:54;;;;;;;2.23;1.62;;;;;;;22.04;68.54;99889.83;;;;-51
2021/07/31 13:26:54;;;;;;;2.57;1.80;;;;;;;22.05;68.52;99893.48;;;;-52
2021/07/31 13:29:54;;;;;;;1.65;1.47;;;;;;;22.06;68.58;99889.38;;;;-52
2021/07/31 13:32:54;;;;;;;2.53;1.69;;;;;;;22.07;68.60;99883.66;;;;-53
2021/07/31 13:35:54;;;;;;;1.93;1.60;;;;;;;22.07;68.57;99881.59;;;;-53
2021/07/31 13:38:59;;;;;;;4.41;1.80;;;;;;;22.08;68.64;99879.71;;;;-50
2021/07/31 13:41:54;;;;;;;3.53;1.61;;;;;;;22.08;68.68;99876.38;;;;-51
2021/07/31 13:44:54;;;;;;;2.88;1.61;;;;;;;22.09;68.72;99876.11;;;;-50
2021/07/31 13:47:54;;;;;;;3.00;1.61;;;;;;;22.10;68.75;99874.38;;;;-50
2021/07/31 13:50:54;;;;;;;2.13;1.57;;;;;;;22.11;68.71;99876.24;;;;-54
2021/07/31 13:53:54;;;;;;;2.98;1.60;;;;;;;22.12;68.73;99871.17;;;;-53
2021/07/31 13:56:54;;;;;;;2.41;1.68;;;;;;;22.12;68.82;99869.39;;;;-58
2021/07/31 13:59:54;;;;;;;3.41;1.77;;;;;;;22.13;68.74;99876.06;;;;-53
2021/07/31 14:02:54;;;;;;;2.53;1.70;;;;;;;22.14;68.80;99868.37;;;;-53
2021/07/31 14:05:54;;;;;;;1.86;1.65;;;;;;;22.15;68.85;99872.28;;;;-50
2021/07/31 14:08:54;;;;;;;2.35;1.69;;;;;;;22.15;68.79;99864.77;;;;-52
2021/07/31 14:11:55;;;;;;;2.03;1.69;;;;;;;22.16;68.76;99871.36;;;;-51
2021/07/31 14:14:54;;;;;;;2.70;1.60;;;;;;;22.16;68.87;99865.40;;;;-51
2021/07/31 14:17:54;;;;;;;3.55;1.87;;;;;;;22.17;68.77;99864.02;;;;-52
2021/07/31 14:20:54;;;;;;;1.97;1.68;;;;;;;22.18;68.67;99859.17;;;;-50
2021/07/31 14:23:54;;;;;;;4.80;1.79;;;;;;;22.18;68.86;99855.73;;;;-53
2021/07/31 14:26:54;;;;;;;2.93;1.60;;;;;;;22.18;68.93;99844.56;;;;-51
2021/07/31 14:29:54;;;;;;;2.22;1.65;;;;;;;22.18;68.77;99846.77;;;;-58
2021/07/31 14:32:54;;;;;;;2.51;1.56;;;;;;;22.17;68.82;99851.84;;;;-59
2021/07/31 14:35:54;;;;;;;2.85;1.68;;;;;;;22.16;68.86;99850.23;;;;-58
2021/07/31 14:38:54;;;;;;;3.20;1.61;;;;;;;22.16;68.86;99851.11;;;;-59
2021/07/31 14:41:54;;;;;;;2.89;1.59;;;;;;;22.15;68.86;99845.34;;;;-58
2021/07/31 14:44:54;;;;;;;3.01;1.75;;;;;;;22.15;68.83;99855.64;;;;-59
2021/07/31 14:47:54;;;;;;;2.67;1.70;;;;;;;22.15;68.81;99849.27;;;;-59
2021/07/31 14:50:54;;;;;;;2.89;1.70;;;;;;;22.15;68.77;99848.05;;;;-58
2021/07/31 14:53:54;;;;;;;5.63;1.88;;;;;;;22.14;68.77;99851.64;;;;-57
2021/07/31 14:56:54;;;;;;;2.60;1.63;;;;;;;22.14;68.75;99845.91;;;;-64
2021/07/31 14:59:54;;;;;;;2.13;1.62;;;;;;;22.13;68.74;99848.95;;;;-61
2021/07/31 15:02:54;;;;;;;4.03;1.72;;;;;;;22.13;68.72;99850.69;;;;-62
2021/07/31 15:05:54;;;;;;;2.29;1.81;;;;;;;22.12;68.74;99853.23;;;;-64
2021/07/31 15:08:54;;;;;;;3.33;1.58;;;;;;;22.12;68.73;99842.03;;;;-61
2021/07/31 15:11:54;;;;;;;2.69;1.62;;;;;;;22.12;68.74;99842.52;;;;-61
2021/07/31 15:14:54;;;;;;;3.39;1.54;;;;;;;22.11;68.71;99843.77;;;;-61
2021/07/31 15:17:54;;;;;;;1.94;1.63;;;;;;;22.11;68.71;99837.89;;;;-61
2021/07/31 15:20:54;;;;;;;1.61;1.49;;;;;;;22.10;68.73;99832.61;;;;-63
2021/07/31 15:23:54;;;;;;;2.39;1.69;;;;;;;22.10;68.71;99821.33;;;;-61
2021/07/31 15:26:54;;;;;;;3.44;1.59;;;;;;;22.10;68.69;99819.86;;;;-62
2021/07/31 15:29:54;;;;;;;2.79;1.65;;;;;;;22.10;68.71;99819.64;;;;-61
2021/07/31 15:32:54;;;;;;;1.81;1.53;;;;;;;22.09;68.76;99822.48;;;;-62
2021/07/31 15:35:54;;;;;;;2.22;1.52;;;;;;;22.09;68.73;99823.73;;;;-62
2021/07/31 15:38:54;;;;;;;2.97;1.65;;;;;;;22.09;68.82;99826.09;;;;-49
2021/07/31 15:41:54;;;;;;;6.35;1.99;;;;;;;22.09;68.86;99825.75;;;;-48
2021/07/31 15:44:54;;;;;;;4.01;1.67;;;;;;;22.11;68.85;99827.13;;;;-66
2021/07/31 15:47:54;;;;;;;8.43;1.82;;;;;;;22.12;68.44;99830.86;;;;-54
2021/07/31 15:50:55;;;;;;;11.36;1.75;;;;;;;22.13;68.83;99834.61;;;;-53
2021/07/31 15:53:54;;;;;;;4.49;1.89;;;;;;;22.14;68.74;99837.61;;;;-58
2021/07/31 15:56:54;;;;;;;4.24;1.70;;;;;;;22.15;68.77;99835.32;;;;-54
2021/07/31 15:59:54;;;;;;;2.89;1.72;;;;;;;22.15;68.70;99829.61;;;;-57
2021/07/31 16:02:54;;;;;;;2.54;1.63;;;;;;;22.17;68.75;99832.75;;;;-58
2021/07/31 16:05:54;;;;;;;3.87;1.73;;;;;;;22.17;68.77;99824.52;;;;-53
2021/07/31 16:08:55;;;;;;;3.65;1.82;;;;;;;22.17;68.72;99826.47;;;;-51
2021/07/31 16:11:54;;;;;;;2.81;1.77;;;;;;;22.18;68.70;99830.45;;;;-48
2021/07/31 16:14:54;;;;;;;8.63;2.22;;;;;;;22.19;68.62;99829.05;;;;-59
2021/07/31 16:17:54;;;;;;;6.43;1.91;;;;;;;22.21;68.67;99827.88;;;;-53
2021/07/31 16:20:54;;;;;;;10.99;1.90;;;;;;;22.23;68.94;99826.22;;;;-54
2021/07/31 16:23:55;;;;;;;6.21;1.97;;;;;;;22.24;68.96;99824.91;;;;-51
2021/07/31 16:26:54;;;;;;;6.26;1.96;;;;;;;22.26;69.02;99825.54;;;;-48
2021/07/31 16:29:54;;;;;;;6.57;1.99;;;;;;;22.26;69.02;99827.25;;;;-48
2021/07/31 16:32:54;;;;;;;5.69;1.89;;;;;;;22.28;69.07;99819.55;;;;-49
2021/07/31 16:35:54;;;;;;;5.97;2.05;;;;;;;22.30;69.25;99810.86;;;;-50
2021/07/31 16:38:54;;;;;;;5.68;1.95;;;;;;;22.31;69.23;99808.17;;;;-52
2021/07/31 16:41:54;;;;;;;3.79;1.99;;;;;;;22.33;69.36;99806.49;;;;-46
2021/07/31 16:44:54;;;;;;;4.33;2.07;;;;;;;22.33;69.44;99805.60;;;;-50
2021/07/31 16:47:54;;;;;;;4.69;1.80;;;;;;;22.34;69.42;99815.29;;;;-47
2021/07/31 16:50:54;;;;;;;4.28;1.97;;;;;;;22.34;69.35;99810.47;;;;-52
2021/07/31 16:53:54;;;;;;;5.47;2.09;;;;;;;22.35;69.45;99817.33;;;;-49
2021/07/31 16:56:54;;;;;;;4.25;1.77;;;;;;;22.36;69.41;99814.95;;;;-50